Russian Mission, Alaska
Current Conditions -  °F | °C
As of 6:56 PM on Friday 24 Oct 2014 (Local Time) from PARS Reporting Station
Broken Clouds Broken Clouds  
Wind Chill: 30°   Ceiling: 1300
Heat Index: 30°   Visibility: 9mi
Dew Point: 29°   Wind: 0mph
Humidity: 96%   Direction: NA
Pressure: 29.96"   Gusts: NA
Location:  61.78°N, 161.32°W
Report Text: PARS 250256Z AUTO 00000KT 9SM SCT010 BKN013 BKN044 M01/M02 A2996 RMK AO2 TSNO 57003 T10111016 BKN V SCT SLP150 $
Loading
Personal Weather Stations






























Interactive Weather Map
Tropical Storm Tracking
New forecast layout! Learn more

10-Day Weather Forecast

Advertisements
Track Severe Weather on mobile